Time;durP1;ratioP1;P1;durP2;ratioP2;P2;SDS_P1;SDS_P2;PMS_P1;PMS_P2;Temp;Humidity;BMP_temperature;BMP_pressure;BME280_temperature;BME280_humidity;BME280_pressure;Samples;Min_cycle;Max_cycle;Signal;HPM_P1;HPM_P2
2021/06/10 00:00:12;;;;;;;3.15;1.88;;;;;;;22.99;27.22;101714.66;3608930;39;20289;-74
2021/06/10 00:02:41;;;;;;;2.90;1.70;;;;;;;22.94;27.57;101707.75;3608111;39;20044;-73
2021/06/10 00:05:12;;;;;;;3.55;1.73;;;;;;;22.94;27.23;101710.53;3604982;39;20084;-73
2021/06/10 00:07:41;;;;;;;3.33;1.65;;;;;;;22.90;27.48;101711.97;3609005;39;20039;-74
2021/06/10 00:10:12;;;;;;;2.88;1.70;;;;;;;22.90;27.01;101713.91;3592639;39;20133;-74
2021/06/10 00:12:41;;;;;;;2.92;1.77;;;;;;;22.87;27.42;101719.88;3602892;39;20083;-74
2021/06/10 00:15:13;;;;;;;2.67;1.70;;;;;;;22.84;27.30;101718.34;3609079;39;20055;-74
2021/06/10 00:17:41;;;;;;;3.88;2.00;;;;;;;22.81;27.42;101720.59;3605038;39;20060;-74
2021/06/10 00:20:12;;;;;;;3.63;1.77;;;;;;;22.79;27.14;101720.81;3606913;39;20044;-74
2021/06/10 00:22:40;;;;;;;3.78;1.88;;;;;;;22.76;27.38;101720.31;3599012;39;20051;-74
2021/06/10 00:25:10;;;;;;;2.97;1.80;;;;;;;22.74;27.77;101728.88;3611436;39;20059;-74
2021/06/10 00:27:39;;;;;;;3.22;2.00;;;;;;;22.70;27.75;101724.75;3609714;39;20056;-74
2021/06/10 00:30:15;;;;;;;3.67;2.22;;;;;;;22.69;27.61;101734.16;3603479;39;20039;-74
2021/06/10 00:32:43;;;;;;;2.78;1.90;;;;;;;22.64;27.88;101733.03;3613133;39;20051;-74
2021/06/10 00:35:12;;;;;;;3.63;2.30;;;;;;;22.62;27.89;101727.63;3605288;39;20047;-74
2021/06/10 00:37:40;;;;;;;3.58;2.10;;;;;;;22.58;27.76;101720.69;3613250;39;20052;-74
2021/06/10 00:40:11;;;;;;;2.88;1.88;;;;;;;22.57;27.66;101721.75;3599739;39;20058;-74
2021/06/10 00:42:40;;;;;;;3.85;2.05;;;;;;;22.52;27.56;101727.91;3607227;39;20051;-73
2021/06/10 00:45:13;;;;;;;3.53;2.00;;;;;;;22.51;27.94;101723.38;3593927;39;20065;-74
2021/06/10 00:47:41;;;;;;;4.57;2.40;;;;;;;22.46;27.61;101720.31;3605050;39;20087;-74
2021/06/10 00:50:10;;;;;;;3.40;2.03;;;;;;;22.45;28.19;101720.50;3601393;39;20123;-74
2021/06/10 00:52:39;;;;;;;4.45;2.30;;;;;;;22.43;27.61;101717.88;3608150;39;20109;-73
2021/06/10 00:55:08;;;;;;;3.60;2.10;;;;;;;22.41;27.69;101719.13;3602398;39;20396;-74
2021/06/10 00:57:36;;;;;;;3.72;2.20;;;;;;;22.38;28.30;101716.72;3601512;39;20082;-74
2021/06/10 01:00:07;;;;;;;3.30;2.10;;;;;;;22.38;27.85;101720.38;3590667;39;20129;-74
2021/06/10 01:02:37;;;;;;;3.17;2.03;;;;;;;22.36;28.48;101716.03;3598342;39;20040;-73
2021/06/10 01:05:08;;;;;;;3.63;2.20;;;;;;;22.34;28.21;101720.94;3594525;39;20324;-73
2021/06/10 01:07:43;;;;;;;3.47;2.05;;;;;;;22.32;28.39;101712.75;3600697;39;20051;-73
2021/06/10 01:10:23;;;;;;;3.83;1.95;;;;;;;22.31;28.47;101722.22;3593486;39;20393;-73
2021/06/10 01:12:57;;;;;;;4.03;2.45;;;;;;;22.28;28.77;101717.00;3597377;39;20056;-73
2021/06/10 01:15:27;;;;;;;4.63;2.20;;;;;;;22.25;28.25;101709.00;3606854;39;20052;-73
2021/06/10 01:17:58;;;;;;;3.33;2.25;;;;;;;22.24;28.64;101711.97;3608709;39;20047;-73
2021/06/10 01:20:27;;;;;;;3.85;2.10;;;;;;;22.21;28.70;101706.78;3592797;40;20129;-73
2021/06/10 01:23:03;;;;;;;3.75;2.10;;;;;;;22.22;28.18;101711.31;3599601;39;20352;-74
2021/06/10 01:25:46;;;;;;;3.03;2.20;;;;;;;22.18;28.46;101705.22;3603823;39;20327;-73
2021/06/10 01:28:20;;;;;;;3.85;2.40;;;;;;;22.16;28.62;101705.38;3598747;39;20378;-73
2021/06/10 01:30:51;;;;;;;4.07;2.22;;;;;;;22.13;28.31;101710.50;3611580;39;20062;-73
2021/06/10 01:33:23;;;;;;;2.88;1.92;;;;;;;22.11;28.88;101704.22;3603108;39;20434;-73
2021/06/10 01:35:56;;;;;;;3.15;2.13;;;;;;;22.06;28.81;101703.94;3607273;39;20668;-73
2021/06/10 01:38:25;;;;;;;;;;;;;;;21.76;29.21;101701.03;3609026;39;20055;-73
2021/06/10 01:40:54;;;;;;;3.83;1.83;;;;;;;21.98;29.17;101698.44;3607810;39;19931;-73
2021/06/10 01:43:25;;;;;;;2.85;2.17;;;;;;;22.01;28.61;101703.63;3611730;39;20101;-74
2021/06/10 01:45:56;;;;;;;4.47;2.30;;;;;;;21.97;29.17;101692.00;3608673;39;20047;-74
2021/06/10 01:48:25;;;;;;;3.53;2.30;;;;;;;21.94;28.69;101686.78;3608736;39;20058;-74
2021/06/10 01:50:56;;;;;;;3.80;2.35;;;;;;;21.93;28.85;101687.84;3604815;39;20051;-75
2021/06/10 01:53:24;;;;;;;4.18;2.35;;;;;;;21.88;29.35;101695.91;3612912;39;20051;-74
2021/06/10 01:55:54;;;;;;;3.63;2.20;;;;;;;21.87;29.19;101687.72;3610108;39;20424;-73
2021/06/10 01:58:24;;;;;;;3.90;2.45;;;;;;;21.86;28.95;101691.56;3613584;39;20047;-73
2021/06/10 02:00:54;;;;;;;4.55;2.22;;;;;;;21.84;29.15;101688.97;3607386;39;20057;-74
2021/06/10 02:03:22;;;;;;;3.63;2.40;;;;;;;21.81;29.06;101684.66;3606097;39;20328;-73
2021/06/10 02:05:51;;;;;;;4.20;2.33;;;;;;;21.79;29.18;101683.97;3596782;39;20424;-74
2021/06/10 02:08:20;;;;;;;4.13;2.30;;;;;;;21.78;29.48;101689.72;3600494;39;20387;-73
2021/06/10 02:10:51;;;;;;;4.40;2.55;;;;;;;21.76;29.54;101687.09;3592325;40;20390;-73
2021/06/10 02:13:19;;;;;;;3.67;2.25;;;;;;;21.73;29.40;101690.28;3600767;39;20063;-74
2021/06/10 02:15:51;;;;;;;3.42;2.15;;;;;;;21.73;29.24;101690.28;3606311;39;20047;-73
2021/06/10 02:18:21;;;;;;;4.45;2.60;;;;;;;21.69;29.50;101682.47;3604604;39;20059;-73
2021/06/10 02:20:49;;;;;;;3.55;2.35;;;;;;;21.67;29.29;101690.13;3605365;39;20066;-73
2021/06/10 02:23:17;;;;;;;3.55;2.50;;;;;;;21.63;29.98;101678.53;3606358;39;20055;-73
2021/06/10 02:25:45;;;;;;;3.80;2.33;;;;;;;21.62;29.79;101687.06;3599123;39;20133;-73
2021/06/10 02:28:13;;;;;;;5.35;2.30;;;;;;;21.60;29.66;101691.94;3600496;39;20088;-73
2021/06/10 02:30:41;;;;;;;3.80;2.50;;;;;;;21.58;29.95;101685.66;3601175;39;20498;-73
2021/06/10 02:33:10;;;;;;;4.13;2.20;;;;;;;21.56;29.72;101685.00;3605474;39;20323;-73
2021/06/10 02:35:38;;;;;;;3.60;2.30;;;;;;;21.53;30.14;101690.91;3604881;39;20035;-73
2021/06/10 02:38:06;;;;;;;3.78;2.42;;;;;;;21.49;30.27;101693.19;3604197;39;20293;-73
2021/06/10 02:40:38;;;;;;;3.50;2.28;;;;;;;21.50;30.45;101694.06;3597754;39;20392;-73
2021/06/10 02:43:07;;;;;;;4.80;2.42;;;;;;;21.46;30.18;101696.34;3599279;39;20051;-73
2021/06/10 02:45:37;;;;;;;3.60;2.33;;;;;;;21.44;30.07;101685.41;3609475;39;20089;-73
2021/06/10 02:48:08;;;;;;;3.10;2.17;;;;;;;21.43;29.96;101689.22;3600495;39;20052;-73
2021/06/10 02:50:39;;;;;;;3.47;2.33;;;;;;;21.42;30.37;101693.06;3602482;39;20054;-73
2021/06/10 02:53:14;;;;;;;3.58;2.50;;;;;;;21.40;30.11;101685.97;3604264;39;20065;-73
2021/06/10 02:55:43;;;;;;;3.53;2.45;;;;;;;21.38;30.64;101683.34;3602375;39;20051;-73
2021/06/10 02:58:15;;;;;;;4.03;2.17;;;;;;;21.38;30.37;101683.34;3601958;39;20051;-73
2021/06/10 03:00:43;;;;;;;3.90;2.20;;;;;;;21.35;30.63;101678.16;3607974;39;20058;-73
2021/06/10 03:03:13;;;;;;;3.35;2.42;;;;;;;21.36;30.14;101679.00;3603279;39;20047;-73
2021/06/10 03:05:44;;;;;;;4.55;2.58;;;;;;;21.35;30.39;101680.94;3595967;39;20051;-73
2021/06/10 03:08:14;;;;;;;;;;;;;;;21.05;30.52;101681.81;3608978;39;20109;-73
2021/06/10 03:10:43;;;;;;;3.35;2.03;;;;;;;21.28;30.76;101679.06;3611826;39;20189;-73
2021/06/10 03:13:12;;;;;;;3.90;2.45;;;;;;;21.30;30.25;101677.84;3601718;39;20054;-73
2021/06/10 03:15:41;;;;;;;3.72;2.22;;;;;;;21.29;30.70;101678.03;3605377;39;20047;-73
2021/06/10 03:18:12;;;;;;;4.18;2.53;;;;;;;21.27;30.79;101677.31;3603292;39;20045;-73
2021/06/10 03:20:40;;;;;;;4.10;2.58;;;;;;;21.25;30.70;101677.50;3598135;39;20056;-73
2021/06/10 03:23:10;;;;;;;3.85;2.53;;;;;;;21.25;30.95;101683.06;3608021;39;20126;-73
2021/06/10 03:25:40;;;;;;;4.30;2.58;;;;;;;21.23;30.61;101676.84;3606734;39;20128;-73
2021/06/10 03:28:09;;;;;;;4.25;2.60;;;;;;;21.19;30.56;101669.91;3600635;39;20079;-73
2021/06/10 03:30:37;;;;;;;3.80;2.45;;;;;;;21.17;30.56;101683.13;3611751;39;20047;-73
2021/06/10 03:33:06;;;;;;;4.75;2.60;;;;;;;21.17;30.85;101690.59;3603250;39;20087;-73
2021/06/10 03:35:35;;;;;;;3.95;2.47;;;;;;;21.14;31.00;101689.06;3603442;39;20083;-73
2021/06/10 03:38:05;;;;;;;4.70;2.50;;;;;;;21.13;30.98;101689.25;3610957;39;20128;-73
2021/06/10 03:40:36;;;;;;;5.75;2.65;;;;;;;21.13;31.06;101692.03;3599952;39;20043;-73
2021/06/10 03:43:04;;;;;;;3.95;2.70;;;;;;;21.08;30.98;101682.28;3608820;39;20060;-74
2021/06/10 03:45:33;;;;;;;4.05;2.88;;;;;;;21.05;30.84;101682.69;3606092;39;20048;-73
2021/06/10 03:48:02;;;;;;;3.90;2.40;;;;;;;21.04;31.28;101683.72;3596832;39;20059;-73
2021/06/10 03:50:31;;;;;;;4.32;2.55;;;;;;;21.02;31.09;101682.16;3597066;39;20052;-73
2021/06/10 03:52:59;;;;;;;4.45;2.78;;;;;;;20.99;31.04;101690.88;3608078;39;20048;-73
2021/06/10 03:55:27;;;;;;;5.32;2.83;;;;;;;20.96;31.46;101685.66;3598762;39;20410;-73
2021/06/10 03:57:56;;;;;;;4.13;2.63;;;;;;;20.94;31.56;101677.50;3608869;39;20063;-73
2021/06/10 04:00:24;;;;;;;4.20;2.75;;;;;;;20.89;31.55;101685.53;3601013;39;20044;-74
2021/06/10 04:02:52;;;;;;;4.75;2.97;;;;;;;20.86;31.55;101680.28;3609668;39;20043;-73
2021/06/10 04:05:22;;;;;;;4.30;3.00;;;;;;;20.84;31.53;101684.28;3611979;39;20055;-73
2021/06/10 04:07:53;;;;;;;4.65;3.28;;;;;;;20.82;31.26;101669.72;3604422;39;20062;-73
2021/06/10 04:13:59;;;;;;;4.65;2.92;;;;;;;20.74;31.84;101669.75;3593384;39;20048;-73
2021/06/10 04:16:27;;;;;;;6.57;3.80;;;;;;;20.73;31.78;101670.78;3606391;39;20058;-73
2021/06/10 04:18:55;;;;;;;5.03;3.50;;;;;;;20.70;31.59;101672.88;3602664;39;20088;-73
2021/06/10 04:21:24;;;;;;;4.32;3.15;;;;;;;20.69;31.58;101673.91;3606837;39;20431;-73
2021/06/10 04:24:04;;;;;;;4.97;3.00;;;;;;;20.66;31.79;101677.06;3605660;39;20056;-73
2021/06/10 04:26:52;;;;;;;4.40;3.10;;;;;;;20.62;31.60;101670.13;3603262;39;20055;-74
2021/06/10 04:29:41;;;;;;;5.03;3.22;;;;;;;20.63;31.40;101679.34;3599116;39;20059;-73
2021/06/10 04:32:28;;;;;;;5.03;3.35;;;;;;;20.58;32.21;101674.28;3600597;39;20060;-74
2021/06/10 04:35:16;;;;;;;4.57;3.10;;;;;;;20.57;32.09;101682.84;3611332;39;20059;-74
2021/06/10 04:38:04;;;;;;;5.53;3.15;;;;;;;20.56;31.80;101681.97;3605666;39;20058;-74
2021/06/10 04:40:51;;;;;;;6.28;3.22;;;;;;;20.56;32.36;101689.44;3610802;39;20458;-73
2021/06/10 04:43:39;;;;;;;4.90;3.33;;;;;;;20.55;31.92;101691.34;3610448;39;20389;-74
2021/06/10 04:46:28;;;;;;;4.85;3.17;;;;;;;20.57;32.39;101686.50;3607226;39;20415;-73
2021/06/10 04:49:15;;;;;;;4.57;3.20;;;;;;;20.55;31.96;101687.69;3603122;39;20044;-74
2021/06/10 04:51:43;;;;;;;5.13;3.28;;;;;;;20.55;32.06;101694.13;3607649;39;20051;-74
2021/06/10 04:54:11;;;;;;;3.92;3.10;;;;;;;20.56;32.71;101687.53;3600003;39;20400;-74
2021/06/10 04:56:39;;;;;;;5.22;3.45;;;;;;;20.56;32.35;101687.53;3599582;39;20032;-74
2021/06/10 04:59:26;;;;;;;4.72;3.60;;;;;;;20.56;32.94;101684.75;3612948;39;20313;-73
2021/06/10 05:02:15;;;;;;;4.80;3.40;;;;;;;20.59;32.60;101680.72;3604320;39;20556;-74
2021/06/10 05:05:04;;;;;;;4.97;3.17;;;;;;;20.59;32.97;101689.94;3615822;39;20047;-73
2021/06/10 05:07:51;;;;;;;5.10;3.35;;;;;;;20.62;33.39;101691.50;3610917;39;20315;-74
2021/06/10 05:10:20;;;;;;;5.28;3.63;;;;;;;20.65;33.63;101688.38;3607361;39;20054;-74
2021/06/10 05:12:50;;;;;;;5.00;3.63;;;;;;;20.70;33.59;101691.47;3606686;39;20070;-74
2021/06/10 05:15:18;;;;;;;5.15;3.70;;;;;;;20.75;33.83;101691.78;3602741;39;20055;-73
2021/06/10 05:17:47;;;;;;;4.90;3.60;;;;;;;20.81;33.62;101690.22;3610429;39;20047;-74
2021/06/10 05:20:17;;;;;;;5.63;3.72;;;;;;;20.87;33.88;101689.50;3606962;39;20052;-74
2021/06/10 05:22:45;;;;;;;5.00;3.45;;;;;;;20.94;33.70;101693.31;3606539;39;20067;-73
2021/06/10 05:25:14;;;;;;;5.93;3.85;;;;;;;21.01;33.74;101684.06;3612353;39;20063;-74
2021/06/10 05:27:42;;;;;;;5.63;3.63;;;;;;;21.10;34.41;101690.47;3608210;39;20055;-75
2021/06/10 05:30:12;;;;;;;5.57;3.70;;;;;;;21.18;34.42;101682.06;3598390;39;20104;-75
2021/06/10 05:32:40;;;;;;;6.28;4.15;;;;;;;21.28;33.90;101696.63;3607310;39;20044;-75
2021/06/10 05:35:10;;;;;;;5.78;4.07;;;;;;;21.39;34.47;101689.78;3609339;39;20091;-75
2021/06/10 05:37:38;;;;;;;6.22;4.15;;;;;;;21.44;34.02;101696.53;3607901;39;20055;-72
2021/06/10 05:40:08;;;;;;;5.65;4.05;;;;;;;21.56;34.40;101696.16;3610207;39;20054;-72
2021/06/10 05:42:36;;;;;;;4.95;3.63;;;;;;;21.64;33.88;101701.66;3606319;39;20047;-72
2021/06/10 05:45:05;;;;;;;5.20;4.10;;;;;;;21.72;34.06;101699.69;3611217;39;20075;-72
2021/06/10 05:47:34;;;;;;;6.00;4.28;;;;;;;21.79;33.91;101697.03;3595828;39;20379;-73
2021/06/10 05:50:03;;;;;;;6.78;4.38;;;;;;;21.88;33.47;101692.25;3611691;39;20047;-73
2021/06/10 05:52:32;;;;;;;6.10;4.50;;;;;;;21.97;33.26;101699.50;3606802;39;20048;-72
2021/06/10 05:55:00;;;;;;;7.22;4.43;;;;;;;22.02;33.36;101699.78;3604720;39;20138;-72
2021/06/10 05:57:28;;;;;;;4.93;4.10;;;;;;;22.07;33.54;101698.16;3599182;39;21611;-71
2021/06/10 05:59:55;;;;;;;5.95;4.30;;;;;;;22.14;33.33;101699.16;3608363;39;20066;-72
2021/06/10 06:02:24;;;;;;;5.70;3.72;;;;;;;22.21;32.71;101695.66;3608325;39;20054;-72
2021/06/10 06:04:52;;;;;;;6.72;4.05;;;;;;;22.27;32.98;101695.75;3598002;39;20066;-69
2021/06/10 06:07:20;;;;;;;5.53;4.10;;;;;;;22.34;33.09;101704.22;3603441;39;20039;-70
2021/06/10 06:09:49;;;;;;;4.88;3.30;;;;;;;22.43;32.88;101703.06;3596838;39;20378;-70
2021/06/10 06:12:17;;;;;;;5.47;3.72;;;;;;;22.46;32.17;101700.78;3610286;39;20054;-71
2021/06/10 06:14:45;;;;;;;5.22;3.75;;;;;;;22.52;32.08;101702.81;3601438;39;20035;-70
2021/06/10 06:17:15;;;;;;;5.28;3.58;;;;;;;22.60;31.75;101710.22;3609421;39;20047;-72
2021/06/10 06:19:44;;;;;;;5.28;3.47;;;;;;;22.65;31.41;101707.69;3595369;39;20056;-72
2021/06/10 06:22:13;;;;;;;6.10;3.20;;;;;;;22.70;31.56;101713.59;3602204;39;20039;-72
2021/06/10 06:24:41;;;;;;;4.88;3.05;;;;;;;22.75;31.79;101710.22;3598326;39;20397;-72
2021/06/10 06:27:10;;;;;;;5.60;3.22;;;;;;;22.82;31.11;101714.81;3605822;39;20059;-70
2021/06/10 06:29:40;;;;;;;4.75;3.08;;;;;;;22.86;31.08;101709.78;3600115;39;20052;-71
2021/06/10 06:32:08;;;;;;;5.00;2.95;;;;;;;22.93;31.33;101707.94;3598095;39;20055;-72
2021/06/10 06:34:35;;;;;;;5.32;3.20;;;;;;;22.97;31.26;101714.88;3600191;39;20047;-71
2021/06/10 06:37:03;;;;;;;5.07;3.08;;;;;;;23.05;30.66;101719.50;3603408;39;20055;-71
2021/06/10 06:39:31;;;;;;;4.10;2.60;;;;;;;23.09;30.16;101710.53;3608355;39;20055;-70
2021/06/10 06:41:59;;;;;;;4.82;2.90;;;;;;;23.15;29.97;101706.06;3598501;39;20035;-69
2021/06/10 06:44:30;;;;;;;4.65;3.13;;;;;;;23.22;30.11;101710.69;3609014;39;20048;-71
2021/06/10 06:46:58;;;;;;;5.47;3.08;;;;;;;23.28;29.83;101714.63;3606585;39;20040;-72
2021/06/10 06:49:26;;;;;;;5.10;3.20;;;;;;;23.35;30.18;101714.72;3596587;39;20389;-72
2021/06/10 06:51:53;;;;;;;5.00;2.78;;;;;;;23.41;29.61;101717.56;3606326;39;20067;-72
2021/06/10 06:54:21;;;;;;;5.38;3.05;;;;;;;23.48;29.70;101718.56;3609555;39;20051;-71
2021/06/10 06:56:49;;;;;;;5.28;2.92;;;;;;;23.55;29.85;101716.69;3609404;39;20056;-72
2021/06/10 06:59:17;;;;;;;5.22;3.10;;;;;;;23.62;29.39;101720.47;3602766;39;20079;-71
2021/06/10 07:01:48;;;;;;;5.75;3.05;;;;;;;23.72;29.30;101722.03;3613405;39;20051;-70
2021/06/10 07:04:17;;;;;;;6.60;3.55;;;;;;;23.76;29.17;101721.44;3596998;39;20051;-70
2021/06/10 07:06:47;;;;;;;5.55;3.10;;;;;;;23.85;29.15;101725.84;3608375;39;20031;-72
2021/06/10 07:09:15;;;;;;;4.60;2.65;;;;;;;23.92;28.81;101731.50;3609904;39;20112;-71
2021/06/10 07:11:43;;;;;;;5.38;3.28;;;;;;;23.99;28.35;101727.72;3597495;39;20302;-72
2021/06/10 07:14:11;;;;;;;5.90;2.88;;;;;;;24.07;28.55;101729.53;3607139;39;20055;-72
2021/06/10 07:16:42;;;;;;;4.65;2.85;;;;;;;24.14;28.08;101727.66;3606878;39;20289;-73
2021/06/10 07:19:12;;;;;;;4.93;2.50;;;;;;;24.24;28.07;101730.97;3604405;39;20078;-72
2021/06/10 07:21:42;;;;;;;5.63;2.85;;;;;;;24.32;28.59;101732.75;3595137;39;20481;-71
2021/06/10 07:24:10;;;;;;;4.63;2.80;;;;;;;24.38;28.40;101743.13;3604434;39;20060;-72
2021/06/10 07:26:40;;;;;;;4.78;3.08;;;;;;;24.46;28.35;101745.78;3605643;39;20056;-71
2021/06/10 07:29:08;;;;;;;4.47;2.60;;;;;;;24.55;28.33;101738.09;3598587;39;20048;-71
2021/06/10 07:31:35;;;;;;;4.80;2.55;;;;;;;24.63;28.16;101747.22;3608432;39;20048;-72
2021/06/10 07:34:06;;;;;;;4.57;2.30;;;;;;;24.72;28.26;101742.34;3608677;39;20132;-72
2021/06/10 07:36:36;;;;;;;4.30;2.65;;;;;;;24.83;28.01;101739.00;3607166;39;20059;-71
2021/06/10 07:39:05;;;;;;;4.00;2.53;;;;;;;24.90;27.86;101744.63;3602388;39;20137;-72
2021/06/10 07:41:33;;;;;;;4.03;2.35;;;;;;;24.96;28.03;101735.41;3605639;39;20414;-72
2021/06/10 07:44:01;;;;;;;3.80;2.25;;;;;;;25.04;27.90;101738.91;3610176;39;20055;-72
2021/06/10 07:46:29;;;;;;;4.13;2.25;;;;;;;25.12;28.01;101738.72;3591478;39;20116;-71
2021/06/10 07:48:58;;;;;;;4.60;2.45;;;;;;;25.24;27.77;101740.97;3598138;39;20047;-73
2021/06/10 07:51:26;;;;;;;3.97;2.22;;;;;;;25.31;27.74;101725.91;3608058;39;20051;-70
2021/06/10 07:53:56;;;;;;;4.25;2.40;;;;;;;25.42;27.56;101732.88;3607349;39;20051;-70
2021/06/10 07:56:24;;;;;;;3.97;2.17;;;;;;;25.48;27.63;101730.09;3602337;39;20047;-69
2021/06/10 07:58:52;;;;;;;3.80;2.22;;;;;;;25.56;27.34;101731.84;3602863;39;20066;-69
2021/06/10 08:01:20;;;;;;;3.47;2.03;;;;;;;25.64;27.46;101734.44;3604963;39;20100;-69
2021/06/10 08:03:48;;;;;;;4.03;2.10;;;;;;;25.71;27.04;101738.13;3606498;39;20058;-69
2021/06/10 08:06:16;;;;;;;3.70;1.88;;;;;;;25.78;27.03;101732.53;3597085;39;20066;-69
2021/06/10 08:08:44;;;;;;;3.83;1.98;;;;;;;25.86;26.88;101741.63;3604087;39;20066;-70
2021/06/10 08:11:14;;;;;;;3.25;2.00;;;;;;;25.94;26.81;101737.78;3597848;39;20051;-71
2021/06/10 08:13:42;;;;;;;3.95;2.25;;;;;;;26.00;26.47;101738.88;3606519;39;20360;-71
2021/06/10 08:16:10;;;;;;;2.90;1.90;;;;;;;26.08;26.38;101741.47;3608006;39;20131;-71
2021/06/10 08:18:38;;;;;;;3.50;2.00;;;;;;;26.13;26.31;101736.94;3600439;39;20047;-71
2021/06/10 08:21:06;;;;;;;3.28;2.03;;;;;;;26.21;26.32;101738.66;3604584;39;20340;-71
2021/06/10 08:23:34;;;;;;;3.72;1.92;;;;;;;26.25;26.07;101734.38;3595501;39;20052;-69
2021/06/10 08:26:03;;;;;;;3.13;1.90;;;;;;;26.31;26.13;101739.13;3609348;39;20129;-71
2021/06/10 08:28:33;;;;;;;4.00;2.58;;;;;;;26.39;25.83;101735.25;3604266;39;20051;-71
2021/06/10 08:31:01;;;;;;;3.85;2.00;;;;;;;26.43;26.01;101740.25;3610283;39;20076;-70
2021/06/10 08:33:30;;;;;;;3.75;1.77;;;;;;;26.48;26.18;101737.63;3610994;39;20039;-70
2021/06/10 08:35:58;;;;;;;2.92;1.75;;;;;;;26.54;26.09;101738.69;3606253;39;20096;-72
2021/06/10 08:38:25;;;;;;;3.10;1.70;;;;;;;26.60;25.91;101735.88;3608373;39;20095;-71
2021/06/10 08:40:53;;;;;;;3.30;1.88;;;;;;;26.65;25.90;101738.91;3607991;39;20088;-69
2021/06/10 08:43:22;;;;;;;4.07;1.90;;;;;;;26.72;25.98;101744.50;3608266;39;20056;-70
2021/06/10 08:45:59;;;;;;;2.95;1.80;;;;;;;26.82;25.50;101744.94;3604172;39;20320;-71
2021/06/10 08:48:32;;;;;;;3.10;1.80;;;;;;;26.86;25.26;101746.22;3613677;39;20419;-71
2021/06/10 08:51:00;;;;;;;2.53;1.80;;;;;;;26.89;25.46;101750.53;3606815;39;20083;-70
2021/06/10 08:53:28;;;;;;;3.13;1.83;;;;;;;26.96;25.45;101746.66;3606923;39;20396;-71
2021/06/10 08:55:57;;;;;;;3.05;1.75;;;;;;;27.01;25.60;101745.97;3610594;39;20393;-71
2021/06/10 08:58:26;;;;;;;3.40;2.00;;;;;;;27.08;25.59;101741.22;3609813;39;20059;-72
2021/06/10 09:00:56;;;;;;;3.60;2.00;;;;;;;27.15;25.28;101738.41;3604827;39;20491;-72
2021/06/10 09:03:27;;;;;;;3.33;1.85;;;;;;;27.19;25.41;101745.28;3589875;40;20086;-69
2021/06/10 09:06:07;;;;;;;3.17;1.90;;;;;;;27.26;25.03;101743.31;3608059;39;20036;-70
2021/06/10 09:08:37;;;;;;;2.92;1.70;;;;;;;27.30;25.34;101738.97;3605285;39;20116;-70
2021/06/10 09:11:08;;;;;;;3.53;2.22;;;;;;;27.35;25.13;101750.41;3606577;39;20369;-70
2021/06/10 09:13:39;;;;;;;3.67;2.40;;;;;;;27.38;24.87;101748.03;3596341;39;20121;-70
2021/06/10 09:16:20;;;;;;;3.38;2.20;;;;;;;27.44;24.53;101751.88;3606197;39;20165;-70
2021/06/10 09:18:57;;;;;;;3.20;1.92;;;;;;;27.46;25.02;101751.69;3608406;39;20409;-69
2021/06/10 09:21:28;;;;;;;6.80;2.58;;;;;;;27.53;25.19;101752.53;3607644;39;20052;-72
2021/06/10 09:23:57;;;;;;;4.47;2.40;;;;;;;27.56;24.85;101754.91;3602023;39;20392;-72
2021/06/10 09:26:32;;;;;;;4.35;2.10;;;;;;;27.63;24.27;101759.41;3597924;39;20047;-71
2021/06/10 09:29:05;;;;;;;3.92;2.03;;;;;;;27.67;24.84;101757.84;3608950;39;20088;-71
2021/06/10 09:31:36;;;;;;;3.15;1.85;;;;;;;27.69;24.82;101750.06;3606897;39;20067;-71
2021/06/10 09:34:13;;;;;;;3.25;2.10;;;;;;;27.72;24.54;101746.81;3607806;39;20062;-71
2021/06/10 09:36:42;;;;;;;3.85;2.10;;;;;;;27.76;24.73;101750.88;3603343;39;20412;-72
2021/06/10 09:39:13;;;;;;;3.35;1.90;;;;;;;27.83;24.71;101756.50;3594612;39;20048;-71
2021/06/10 09:42:00;;;;;;;3.72;1.98;;;;;;;27.87;24.61;101756.88;3606315;39;20405;-71
2021/06/10 09:44:40;;;;;;;3.10;2.05;;;;;;;27.92;24.34;101760.72;3604948;39;20052;-71
2021/06/10 09:47:10;;;;;;;2.90;2.00;;;;;;;27.95;24.23;101759.44;3594493;39;20308;-71
2021/06/10 09:49:39;;;;;;;4.38;1.90;;;;;;;27.96;24.34;101753.59;3595115;39;20051;-71
2021/06/10 09:52:07;;;;;;;3.65;2.10;;;;;;;28.00;24.17;101766.13;3602727;39;20133;-70
2021/06/10 09:54:44;;;;;;;4.32;2.40;;;;;;;28.07;23.55;101763.28;3607423;39;20047;-71
2021/06/10 09:57:14;;;;;;;3.30;1.90;;;;;;;28.07;24.28;101766.97;3597709;39;20047;-72
2021/06/10 09:59:52;;;;;;;3.00;1.90;;;;;;;28.10;24.07;101763.69;3607633;39;20051;-72
2021/06/10 10:02:25;;;;;;;3.30;2.10;;;;;;;28.15;23.78;101761.06;3601616;39;20092;-73
2021/06/10 10:05:03;;;;;;;2.38;1.73;;;;;;;28.19;23.46;101761.44;3597333;39;20373;-70
2021/06/10 10:07:33;;;;;;;3.40;2.30;;;;;;;28.19;24.06;101764.25;3598700;39;20407;-74
2021/06/10 10:10:04;;;;;;;3.47;2.28;;;;;;;28.22;24.08;101763.81;3599222;39;20042;-72
2021/06/10 10:12:32;;;;;;;3.92;1.92;;;;;;;28.22;24.04;101761.00;3604711;39;20095;-72
2021/06/10 10:15:01;;;;;;;3.20;1.90;;;;;;;28.24;23.99;101767.28;3595886;39;20044;-72
2021/06/10 10:17:32;;;;;;;3.72;2.15;;;;;;;28.29;23.27;101755.31;3606437;39;20043;-72
2021/06/10 10:20:03;;;;;;;2.80;2.00;;;;;;;28.27;23.58;101764.00;3606745;39;20317;-74
2021/06/10 10:22:31;;;;;;;3.50;2.00;;;;;;;28.28;23.46;101762.03;3591678;39;20396;-75
2021/06/10 10:24:59;;;;;;;4.53;2.17;;;;;;;28.28;23.35;101759.22;3608804;39;20043;-72
2021/06/10 10:27:27;;;;;;;3.30;2.22;;;;;;;28.29;23.51;101752.50;3606101;39;20115;-74
2021/06/10 10:29:56;;;;;;;3.97;2.15;;;;;;;28.30;23.42;101740.16;3607846;39;20051;-74
2021/06/10 10:32:26;;;;;;;3.20;1.77;;;;;;;28.32;23.73;101747.31;3595259;40;20052;-73
2021/06/10 10:35:24;;;;;;;3.50;2.20;;;;;;;28.33;23.50;101743.38;3591150;39;20051;-72
2021/06/10 10:37:54;;;;;;;3.15;2.00;;;;;;;28.34;23.87;101742.28;3610376;39;20043;-72
2021/06/10 10:40:23;;;;;;;3.85;1.90;;;;;;;28.38;23.89;101742.69;3600144;39;20300;-70
2021/06/10 10:42:52;;;;;;;2.58;1.80;;;;;;;28.39;23.89;101735.97;3609107;39;20397;-71
2021/06/10 10:45:23;;;;;;;2.70;1.85;;;;;;;28.45;23.61;101740.69;3599338;39;20157;-72
2021/06/10 10:47:59;;;;;;;2.38;1.63;;;;;;;28.47;23.72;101732.88;3595927;39;20320;-71
2021/06/10 10:50:37;;;;;;;2.92;2.03;;;;;;;28.52;23.53;101731.13;3602430;39;20290;-71
2021/06/10 10:53:08;;;;;;;2.80;1.75;;;;;;;28.54;23.48;101728.94;3604550;39;20095;-71
2021/06/10 10:55:37;;;;;;;3.00;2.00;;;;;;;28.54;23.61;101728.06;3599796;39;20317;-71
2021/06/10 10:58:07;;;;;;;2.90;1.77;;;;;;;28.63;23.54;101731.47;3606150;39;20308;-72
2021/06/10 11:00:53;;;;;;;3.25;1.98;;;;;;;28.68;23.30;101725.97;3602839;39;20085;-71
2021/06/10 11:03:41;;;;;;;3.20;2.10;;;;;;;28.68;23.45;101729.66;3608522;39;20071;-72
2021/06/10 11:06:33;;;;;;;4.32;2.30;;;;;;;28.72;23.40;101730.06;3604959;39;20059;-72
2021/06/10 11:09:07;;;;;;;4.17;2.40;;;;;;;28.73;23.38;101724.22;3594534;39;20055;-72
2021/06/10 11:11:58;;;;;;;3.65;2.38;;;;;;;28.76;23.26;101728.50;3603232;39;20052;-71
2021/06/10 11:14:53;;;;;;;4.60;2.38;;;;;;;28.76;23.01;101720.91;3605191;39;20039;-74
2021/06/10 11:17:26;;;;;;;3.15;2.08;;;;;;;28.81;23.00;101712.66;3586006;39;20051;-73
2021/06/10 11:19:58;;;;;;;2.88;1.98;;;;;;;28.85;23.05;101716.69;3608014;39;20040;-73
2021/06/10 11:22:28;;;;;;;;;;;;;;;28.54;23.58;101714.88;3606768;39;20755;-73
2021/06/10 11:24:57;;;;;;;2.95;1.98;;;;;;;28.81;22.83;101708.97;3607537;39;19931;-73
2021/06/10 11:27:40;;;;;;;3.50;2.00;;;;;;;28.86;22.63;101703.47;3605669;39;20051;-72
2021/06/10 11:30:26;;;;;;;3.33;2.25;;;;;;;28.82;22.44;101702.25;3607399;39;20042;-74
2021/06/10 11:33:06;;;;;;;3.08;2.10;;;;;;;28.80;22.51;101698.78;3610233;39;20420;-76
2021/06/10 11:35:42;;;;;;;3.03;2.00;;;;;;;28.76;22.97;101695.56;3612316;39;20377;-74
2021/06/10 11:38:14;;;;;;;3.40;2.20;;;;;;;28.74;22.51;101697.75;3600415;39;20386;-74
2021/06/10 11:40:45;;;;;;;2.78;1.98;;;;;;;28.72;22.68;101699.97;3611687;39;20062;-78
2021/06/10 11:43:15;;;;;;;3.40;2.22;;;;;;;28.70;22.63;101690.00;3595399;39;20054;-75
2021/06/10 11:45:48;;;;;;;4.05;2.00;;;;;;;28.68;22.68;101687.44;3608324;39;20060;-75
2021/06/10 11:48:33;;;;;;;3.47;2.10;;;;;;;28.68;22.59;101680.94;3599481;39;20386;-74